createdAt,value
2023-05-21T00:01:16.537Z,8.90
2023-05-21T00:06:23.265Z,8.40
2023-05-21T00:11:28.971Z,9.20
2023-05-21T00:16:34.399Z,9.70
2023-05-21T00:21:39.845Z,10.50
2023-05-21T00:26:45.276Z,10.10
2023-05-21T00:31:52.309Z,9.90
2023-05-21T00:36:57.811Z,10.40
2023-05-21T00:42:03.971Z,9.40
2023-05-21T00:47:09.490Z,10.10
2023-05-21T00:52:15.141Z,10.40
2023-05-21T00:57:22.040Z,11.60
2023-05-21T01:02:27.745Z,9.80
2023-05-21T01:07:34.834Z,10.20
2023-05-21T01:12:42.772Z,10.60
2023-05-21T01:17:49.872Z,10.20
2023-05-21T01:22:56.772Z,10.20
2023-05-21T01:28:02.103Z,10.10
2023-05-21T01:33:17.408Z,10.20
2023-05-21T01:38:29.514Z,10.50
2023-05-21T01:43:38.531Z,10.00
2023-05-21T01:48:45.298Z,10.40
2023-05-21T01:53:50.778Z,10.70
2023-05-21T01:58:58.362Z,10.40
2023-05-21T02:04:03.962Z,10.50
2023-05-21T02:09:09.498Z,9.70
2023-05-21T02:14:15.034Z,11.10
2023-05-21T02:19:20.419Z,10.70
2023-05-21T02:24:25.814Z,11.70
2023-05-21T02:29:31.125Z,10.60
2023-05-21T02:34:42.382Z,10.10
2023-05-21T02:39:47.779Z,11.00
2023-05-21T02:44:53.377Z,10.70
2023-05-21T02:50:00.204Z,10.20
2023-05-21T02:55:07.128Z,11.50
2023-05-21T03:00:14.780Z,11.00
2023-05-21T03:05:20.797Z,11.80
2023-05-21T03:10:26.189Z,11.20
2023-05-21T03:15:33.424Z,12.20
2023-05-21T03:20:43.710Z,12.40
2023-05-21T03:25:49.287Z,13.40
2023-05-21T03:30:54.893Z,13.40
2023-05-21T03:36:00.510Z,17.00
2023-05-21T03:41:06.158Z,15.70
2023-05-21T03:46:11.629Z,16.60
2023-05-21T03:51:18.142Z,15.30
2023-05-21T03:56:23.473Z,13.70
2023-05-21T04:01:29.079Z,18.40
2023-05-21T04:06:34.417Z,15.20
2023-05-21T04:11:39.907Z,16.20
2023-05-21T04:16:45.260Z,17.70
2023-05-21T04:21:50.711Z,16.50
2023-05-21T04:26:57.404Z,16.50
2023-05-21T04:32:02.879Z,18.00
2023-05-21T04:37:09.439Z,15.00
2023-05-21T04:42:14.863Z,17.80
2023-05-21T04:47:20.386Z,16.20
2023-05-21T04:52:26.846Z,14.70
2023-05-21T04:57:32.210Z,16.10
2023-05-21T05:02:37.703Z,16.60
2023-05-21T05:07:43.615Z,15.00
2023-05-21T05:12:49.822Z,12.20
2023-05-21T05:17:56.819Z,15.10
2023-05-21T05:23:02.516Z,15.10
2023-05-21T05:28:07.872Z,15.90
2023-05-21T05:33:13.780Z,15.30
2023-05-21T05:38:19.230Z,14.80
2023-05-21T05:43:26.570Z,14.90
2023-05-21T05:48:31.968Z,15.00
2023-05-21T05:53:37.988Z,13.50
2023-05-21T05:58:43.361Z,12.90
2023-05-21T06:03:48.972Z,14.30
2023-05-21T06:08:54.546Z,13.60
2023-05-21T06:14:01.553Z,13.40
2023-05-21T06:19:07.158Z,12.20
2023-05-21T06:24:12.626Z,13.00
2023-05-21T06:29:18.174Z,12.60
2023-05-21T06:34:23.531Z,11.60
2023-05-21T06:39:28.943Z,12.80
2023-05-21T06:44:34.331Z,12.10
2023-05-21T06:49:39.793Z,12.80
2023-05-21T06:54:45.409Z,12.00
2023-05-21T06:59:50.892Z,11.40
2023-05-21T07:04:56.861Z,12.70
2023-05-21T07:10:02.313Z,11.30
2023-05-21T07:15:09.567Z,11.00
2023-05-21T07:20:15.942Z,12.00
2023-05-21T07:25:21.635Z,11.30
2023-05-21T07:30:37.680Z,10.40
2023-05-21T07:36:06.278Z,11.90
2023-05-21T07:41:11.772Z,10.00
2023-05-21T07:46:17.252Z,10.10
2023-05-21T07:51:23.419Z,9.60
2023-05-21T07:56:29.454Z,9.30
2023-05-21T08:01:37.395Z,10.30
2023-05-21T08:06:42.735Z,9.10
2023-05-21T08:11:48.220Z,9.50
2023-05-21T08:16:53.575Z,9.40
2023-05-21T08:21:59.004Z,9.30
2023-05-21T08:27:04.845Z,8.10
2023-05-21T08:32:10.605Z,8.20
2023-05-21T08:37:18.396Z,8.20
2023-05-21T08:42:37.067Z,8.00
2023-05-21T08:47:44.649Z,7.90
2023-05-21T08:52:51.736Z,7.40
2023-05-21T08:57:57.103Z,7.50
2023-05-21T09:03:07.751Z,7.20
2023-05-21T09:08:18.344Z,7.10
2023-05-21T09:13:25.114Z,6.50
2023-05-21T09:18:30.625Z,6.70
2023-05-21T09:23:36.106Z,5.90
2023-05-21T09:28:41.581Z,6.40
2023-05-21T09:33:48.980Z,6.60
2023-05-21T09:38:54.515Z,6.70
2023-05-21T09:44:01.657Z,6.10
2023-05-21T09:49:07.465Z,7.00
2023-05-21T09:54:13.143Z,6.00
2023-05-21T09:59:18.841Z,6.20
2023-05-21T10:04:25.080Z,6.60
2023-05-21T10:09:31.437Z,5.60
2023-05-21T10:14:37.333Z,5.90
2023-05-21T10:19:43.813Z,6.30
2023-05-21T10:24:50.295Z,6.10
2023-05-21T10:29:57.142Z,5.40
2023-05-21T10:35:02.821Z,6.00
2023-05-21T10:40:11.044Z,5.70
2023-05-21T10:45:23.271Z,5.90
2023-05-21T10:50:54.574Z,5.70
2023-05-21T10:56:12.826Z,5.70
2023-05-21T11:01:19.636Z,5.70
2023-05-21T11:06:27.397Z,4.80
2023-05-21T11:11:44.329Z,5.50
2023-05-21T11:16:49.705Z,6.20
2023-05-21T11:21:56.881Z,5.10
2023-05-21T11:27:04.764Z,5.40
2023-05-21T11:32:11.700Z,5.10
2023-05-21T11:37:29.277Z,4.80
2023-05-21T11:42:39.336Z,4.80
2023-05-21T11:47:46.148Z,4.40
2023-05-21T11:52:52.032Z,4.40
2023-05-21T11:57:58.548Z,4.20
2023-05-21T12:03:05.968Z,4.20
2023-05-21T12:08:11.682Z,4.30
2023-05-21T12:13:17.545Z,4.50
2023-05-21T12:18:23.365Z,4.20
2023-05-21T12:23:30.507Z,4.20
2023-05-21T12:28:36.409Z,4.50
2023-05-21T12:33:44.146Z,4.30
2023-05-21T12:38:49.671Z,4.20
2023-05-21T12:43:55.779Z,4.10
2023-05-21T12:49:01.376Z,4.50
2023-05-21T12:54:14.128Z,4.30
2023-05-21T12:59:19.980Z,4.00
2023-05-21T13:04:25.610Z,3.80
2023-05-21T13:09:31.394Z,4.00
2023-05-21T13:14:36.858Z,4.20
2023-05-21T13:19:42.493Z,3.90
2023-05-21T13:24:48.120Z,4.20
2023-05-21T13:29:53.805Z,4.00
2023-05-21T13:34:59.185Z,4.60
2023-05-21T13:40:05.921Z,4.10
2023-05-21T13:45:14.295Z,4.20
2023-05-21T13:50:19.806Z,4.10
2023-05-21T13:55:25.398Z,4.20
2023-05-21T14:00:31.551Z,3.80
2023-05-21T14:05:37.224Z,4.20
2023-05-21T14:10:42.628Z,4.20
2023-05-21T14:15:48.623Z,3.80
2023-05-21T14:20:54.720Z,3.70
2023-05-21T14:26:00.258Z,3.70
2023-05-21T14:31:06.197Z,3.90
2023-05-21T14:36:11.702Z,3.30
2023-05-21T14:41:20.999Z,4.20
2023-05-21T14:46:27.058Z,4.00
2023-05-21T14:51:32.783Z,4.00
2023-05-21T14:56:38.129Z,3.80
2023-05-21T15:01:43.637Z,3.90
2023-05-21T15:06:49.644Z,3.50
2023-05-21T15:11:54.938Z,3.80
2023-05-21T15:17:00.402Z,3.80
2023-05-21T15:22:05.908Z,3.80
2023-05-21T15:27:11.372Z,3.60
2023-05-21T15:32:36.269Z,3.60
2023-05-21T15:37:43.680Z,3.40
2023-05-21T15:43:10.412Z,3.60
2023-05-21T15:48:26.466Z,3.50
2023-05-21T15:53:52.248Z,3.20
2023-05-21T15:59:19.884Z,3.60
2023-05-21T16:04:45.739Z,3.30
2023-05-21T16:10:11.445Z,3.70
2023-05-21T16:15:37.743Z,3.20
2023-05-21T16:21:04.307Z,3.30
2023-05-21T16:26:30.986Z,3.40
2023-05-21T16:31:56.918Z,3.80
2023-05-21T16:37:24.545Z,3.30
2023-05-21T16:42:50.312Z,3.40
2023-05-21T16:48:17.445Z,3.50
2023-05-21T16:53:44.669Z,3.00
2023-05-21T16:59:12.239Z,3.50
2023-05-21T17:04:37.929Z,3.40
2023-05-21T17:10:04.393Z,3.30
2023-05-21T17:15:31.261Z,3.20
2023-05-21T17:20:57.067Z,2.90
2023-05-21T17:26:18.985Z,3.20
2023-05-21T17:31:46.646Z,3.20
2023-05-21T17:37:15.346Z,3.30
2023-05-21T17:42:41.140Z,3.00
2023-05-21T17:48:07.164Z,3.30
2023-05-21T17:53:32.883Z,3.50
2023-05-21T17:58:58.817Z,3.10
2023-05-21T18:04:26.577Z,3.60
2023-05-21T18:09:52.394Z,3.50
2023-05-21T18:15:18.046Z,3.10
2023-05-21T18:20:43.873Z,2.60
2023-05-21T18:26:09.696Z,3.40
2023-05-21T18:31:36.191Z,3.30
2023-05-21T18:37:01.880Z,3.30
2023-05-21T18:42:28.996Z,3.80
2023-05-21T18:47:55.035Z,3.50
2023-05-21T18:53:20.770Z,3.40
2023-05-21T18:58:40.435Z,3.00
2023-05-21T19:04:06.208Z,3.00
2023-05-21T19:09:32.357Z,3.40
2023-05-21T19:14:57.991Z,3.20
2023-05-21T19:20:24.850Z,3.30
2023-05-21T19:25:50.526Z,3.10
2023-05-21T19:31:16.420Z,3.50
2023-05-21T19:36:52.982Z,3.10
2023-05-21T19:42:09.575Z,3.50
2023-05-21T19:47:18.518Z,3.50
2023-05-21T19:52:44.175Z,3.40
2023-05-21T19:58:04.704Z,3.40
2023-05-21T20:03:30.441Z,3.40
2023-05-21T20:08:56.758Z,3.80
2023-05-21T20:14:22.472Z,3.60
2023-05-21T20:19:48.244Z,3.70
2023-05-21T20:25:13.939Z,3.60
2023-05-21T20:30:40.140Z,3.60
2023-05-21T20:36:06.262Z,3.60
2023-05-21T20:41:32.147Z,3.30
2023-05-21T20:46:58.349Z,3.60
2023-05-21T20:52:24.693Z,3.60
2023-05-21T20:57:43.187Z,3.70
2023-05-21T21:03:08.948Z,3.60
2023-05-21T21:08:34.862Z,3.80
2023-05-21T21:14:00.676Z,3.90
2023-05-21T21:19:21.343Z,4.10
2023-05-21T21:24:31.602Z,4.10
2023-05-21T21:29:57.385Z,4.00
2023-05-21T21:35:13.808Z,4.10
2023-05-21T21:40:40.098Z,4.00
2023-05-21T21:45:59.205Z,3.70
2023-05-21T21:51:25.503Z,3.70
2023-05-21T21:56:51.477Z,3.80
2023-05-21T22:02:17.215Z,3.60
2023-05-21T22:07:42.874Z,3.70
2023-05-21T22:13:08.708Z,3.50
2023-05-21T22:18:40.827Z,3.60
2023-05-21T22:24:09.539Z,3.40
2023-05-21T22:29:40.782Z,3.60
2023-05-21T22:34:48.917Z,3.60
2023-05-21T22:40:14.615Z,3.10
2023-05-21T22:45:40.915Z,3.40
2023-05-21T22:51:01.200Z,3.10
2023-05-21T22:56:27.454Z,3.30
2023-05-21T23:01:53.276Z,3.10
2023-05-21T23:07:19.650Z,3.20
2023-05-21T23:12:45.397Z,3.70
2023-05-21T23:18:11.183Z,3.20
2023-05-21T23:23:37.305Z,3.10
2023-05-21T23:29:02.955Z,2.90
2023-05-21T23:34:28.852Z,2.90
2023-05-21T23:39:45.781Z,3.20
2023-05-21T23:44:54.122Z,2.80
2023-05-21T23:50:19.895Z,2.80
2023-05-21T23:55:45.650Z,3.10
